Aeroporto :
LOGIN :

Iscrizione | Disclaimer

   EN    FR    IT 

 










Sommario :    VFR   VFR Marginale   IFR   IFR Intensivo   IFR Molto Intensivo
Visibilità : 
Base nubi : 
>= 8 km
>= 3000ft
5 / 8 km
1000 / 3000 ft
1500m / 5 km
500 / 1000 ft
800 / 1500m
200 / 500 ft
< 800m
< 200 ft
Simboli :   Temporali  Nebbia  Neve Forte  Precipitazioni Forti  Vento > 20 kt
SIGMETs :   Varie  Temporali  Ghiacco  Turbolenza  Onda orograficha  Ceneri Vulcaniche






- Altitudine del aeroporto : 935 ft


EBFS - Florennes

ULTIMO METAR :
  • 260639Z 12003KT 7000 BKN027 05/04 Q1020 WHT WHT TEMPO YLO

METARs OBSOLETI :
  • 260625Z 11003KT 4000 SCT030 04/03 Q1020 GRN WHT TEMPO YLO
  • 260623Z 11003KT 4000 SCT030 04/03 Q1020 GRN WHT TEMPO YLO
  • 260603Z 09005KT 3000 FEW030 03/02 Q1020 YLO WHT TEMPO YLO
  • 260555Z 08005KT 6000 FEW220 02/02 Q1020 WHT WHT TEMPO YLO
  • 260546Z 09004KT 6000 FEW220 04/03 Q1020 WHT WHT TEMPO YLO
  • 260525Z AUTO 09004KT 4500 BR SCT100/// BKN110/// 03/02 Q1020 GRN
  • 260513Z AUTO 09004KT 2900 BKN100/// OVC120/// 03/02 Q1020 YLO
  • 260455Z AUTO 11003KT 6000 FEW095/// BKN110/// 03/03 Q1020 WHT
  • 260425Z AUTO 08004KT 1800 BR BKN100/// BKN110/// 02/02 Q1020 YLO
  • 260355Z AUTO 08003KT 2400 BR BKN095/// OVC110/// 02/02 Q1020 YLO

TAF TAF EBFS
Valido dal 26 a 07 ore il 26 a 16 ore UTC


260541Z 2607/2616 18004KT 5000 BR FEW030
TEMPO 2607/2609 3000 BR SCT003
PROB30
TEMPO 2607/2608 0500 FG
TEMPO 2607/2616 VRB02KT SKC
BECMG 2609/2611 9999 NSW



MetMap, La meteo Aeronautica in un colpo d'occhio ! - Copyright ORBIFLY Dicembre 2007 - Disclaimer

ORBIFLY MET'MAP TEAM :

Programmazione e sviluppo : Alexandra Zaïnal
Concezione : Baudouin d'Aumeries
Aiuto per la programmazione : Marc-Olivier Méhu
Supporto tecnico e logistico : Manuel Goepfert
Aiuto per la traduzione : Arnaldo La Scala

Contatto : metmap@orbifly.com




FONTI E CREDITI :

   NOAA